Time;durP1;ratioP1;P1;durP2;ratioP2;P2;SDS_P1;SDS_P2;PMS_P1;PMS_P2;Temp;Humidity;BMP_temperature;BMP_pressure;BME280_temperature;BME280_humidity;BME280_pressure;Samples;Min_cycle;Max_cycle;Signal;HPM_P1;HPM_P2
2021/01/29 00:02:24;;;;;;;133.32;75.78;;;26.50;2201.60;;;;;;4977603;28;20021;-87
2021/01/29 00:04:50;;;;;;;140.75;77.68;;;51.20;2227.20;;;;;;4980913;28;20026;-87
2021/01/29 00:07:16;;;;;;;140.18;74.32;;;51.30;2227.20;;;;;;4981081;28;20034;-86
2021/01/29 00:09:42;;;;;;;113.88;62.53;;;51.30;2227.20;;;;;;4980844;28;20472;-87
2021/01/29 00:12:09;;;;;;;73.10;41.90;;;51.40;2227.20;;;;;;4980567;28;20018;-87
2021/01/29 00:14:35;;;;;;;61.90;34.92;;;51.50;2227.20;;;;;;4978416;28;20047;-86
2021/01/29 00:17:02;;;;;;;67.97;35.47;;;51.30;2201.60;;;;;;4963342;28;20073;-86
2021/01/29 00:19:28;;;;;;;54.38;31.88;;;51.30;2201.60;;;;;;4959835;28;20023;-86
2021/01/29 00:21:54;;;;;;;61.63;34.45;;;51.40;2201.60;;;;;;4960078;28;20390;-86
2021/01/29 00:24:20;;;;;;;126.47;67.38;;;51.40;2201.60;;;;;;4960910;28;20062;-86
2021/01/29 00:26:45;;;;;;;177.90;102.10;;;51.30;2227.20;;;;;;4961053;28;20031;-88
2021/01/29 00:29:11;;;;;;;236.60;134.93;;;51.30;2227.20;;;;;;4960708;28;20027;-87
2021/01/29 00:31:37;;;;;;;236.30;134.27;;;51.30;2227.20;;;;;;4960867;28;20057;-86
2021/01/29 00:34:04;;;;;;;198.23;116.50;;;51.30;2227.20;;;;;;4962265;28;20110;-86
2021/01/29 00:36:30;;;;;;;160.82;95.20;;;51.30;2227.20;;;;;;4962069;28;20027;-87
2021/01/29 00:38:56;;;;;;;129.73;80.05;;;51.30;2227.20;;;;;;4960701;28;20034;-87
2021/01/29 00:41:23;;;;;;;150.50;84.53;;;51.20;2227.20;;;;;;4960450;28;20046;-86
2021/01/29 00:43:52;;;;;;;152.25;83.60;;;51.30;2227.20;;;;;;4960539;28;20050;-86
2021/01/29 00:46:19;;;;;;;139.68;78.88;;;51.30;2227.20;;;;;;4960542;28;20057;-87
2021/01/29 00:48:46;;;;;;;101.25;62.10;;;51.20;2227.20;;;;;;4960624;28;20065;-87
2021/01/29 00:51:12;;;;;;;118.55;66.78;;;51.20;2227.20;;;;;;4960670;28;20030;-90
2021/01/29 00:53:38;;;;;;;120.82;70.28;;;51.20;2227.20;;;;;;4961059;28;20451;-89
2021/01/29 00:56:06;;;;;;;120.63;73.38;;;51.30;2227.20;;;;;;4960858;28;20033;-90
2021/01/29 00:58:33;;;;;;;125.85;77.05;;;51.40;2227.20;;;;;;4960619;28;20019;-89
2021/01/29 01:00:59;;;;;;;146.32;86.05;;;51.40;2227.20;;;;;;4960834;28;20019;-89
2021/01/29 01:03:26;;;;;;;128.30;79.47;;;51.50;2227.20;;;;;;4960281;28;20031;-91
2021/01/29 01:05:52;;;;;;;149.10;88.45;;;51.40;2227.20;;;;;;4960594;28;20027;-89
2021/01/29 01:08:19;;;;;;;213.38;108.47;;;51.50;2227.20;;;;;;4961256;28;20433;-89
2021/01/29 01:10:45;;;;;;;171.13;94.50;;;51.50;2227.20;;;;;;4960575;28;20106;-89
2021/01/29 01:13:11;;;;;;;155.60;87.07;;;51.50;2227.20;;;;;;4959814;28;20077;-88
2021/01/29 01:15:37;;;;;;;176.60;97.07;;;51.60;2227.20;;;;;;4960891;28;20022;-89
2021/01/29 01:18:06;;;;;;;154.48;89.70;;;51.60;2227.20;;;;;;4959724;28;20030;-88
2021/01/29 01:20:32;;;;;;;167.82;94.32;;;51.60;2227.20;;;;;;4960063;28;20054;-88
2021/01/29 01:22:58;;;;;;;159.55;88.35;;;51.60;2227.20;;;;;;4960144;28;20018;-86
2021/01/29 01:25:25;;;;;;;148.02;86.05;;;51.70;2227.20;;;;;;4959240;28;20025;-84
2021/01/29 01:27:51;;;;;;;185.13;94.78;;;51.70;2227.20;;;;;;4959550;28;20157;-83
2021/01/29 01:30:24;;;;;;;144.43;81.72;;;51.60;2227.20;;;;;;4959426;28;20019;-87
2021/01/29 01:32:50;;;;;;;141.10;82.32;;;51.60;2227.20;;;;;;4959982;28;20084;-90
2021/01/29 01:35:18;;;;;;;128.77;79.07;;;51.60;2227.20;;;;;;4959846;28;20065;-88
2021/01/29 01:37:43;;;;;;;134.85;80.25;;;51.60;2227.20;;;;;;4960320;28;20459;-89
2021/01/29 01:40:11;;;;;;;181.95;117.00;;;51.40;2227.20;;;;;;4960216;28;20030;-88
2021/01/29 01:42:37;;;;;;;236.23;138.75;;;51.20;2227.20;;;;;;4960742;28;20478;-88
2021/01/29 01:45:28;;;;;;;228.32;132.40;;;51.30;2227.20;;;;;;4973594;28;20019;-88
2021/01/29 01:48:14;;;;;;;167.57;96.50;;;51.40;2227.20;;;;;;4955384;29;20038;-88
2021/01/29 01:50:47;;;;;;;103.57;55.63;;;51.50;2227.20;;;;;;4955844;29;20023;-87
2021/01/29 01:53:23;;;;;;;84.05;47.67;;;51.60;2227.20;;;;;;4956500;29;20067;-90
2021/01/29 01:55:56;;;;;;;77.22;47.78;;;51.60;2227.20;;;;;;4956602;29;20032;-87
2021/01/29 01:58:23;;;;;;;70.45;40.95;;;51.60;2227.20;;;;;;4957055;29;20370;-87
2021/01/29 02:00:48;;;;;;;72.93;44.60;;;51.60;2227.20;;;;;;4956123;29;20448;-89
2021/01/29 02:03:23;;;;;;;86.70;48.92;;;51.60;2227.20;;;;;;4957289;29;20078;-90
2021/01/29 02:05:49;;;;;;;143.77;68.03;;;51.60;2227.20;;;;;;4956392;29;20085;-89
2021/01/29 02:08:17;;;;;;;100.55;50.67;;;51.60;2227.20;;;;;;4956300;29;20039;-89
2021/01/29 02:10:44;;;;;;;70.43;41.00;;;51.50;2227.20;;;;;;4956553;29;20054;-90
2021/01/29 02:13:10;;;;;;;60.97;34.95;;;51.50;2227.20;;;;;;4955890;29;20023;-87
2021/01/29 02:15:41;;;;;;;53.53;33.00;;;51.50;2227.20;;;;;;4958088;28;20024;-88
2021/01/29 02:18:27;;;;;;;51.40;29.17;;;51.40;2227.20;;;;;;4956222;29;20031;-87
2021/01/29 02:24:59;;;;;;;38.83;22.20;;;51.30;2227.20;;;;;;4956862;29;20026;-87
2021/01/29 02:41:17;;;;;;;51.90;26.83;;;51.20;2227.20;;;;;;4957281;29;20421;-87
2021/01/29 02:44:27;;;;;;;58.90;33.05;;;51.20;2227.20;;;;;;4905051;29;20035;-88
2021/01/29 02:47:04;;;;;;;;;;;51.20;2227.20;;;;;;4935369;29;20035;-87
2021/01/29 02:57:05;;;;;;;48.25;28.90;;;51.20;2227.20;;;;;;4937671;29;20091;-89
2021/01/29 03:16:26;;;;;;;43.33;24.25;;;26.50;2201.60;;;;;;4975712;28;20086;-87
2021/01/29 03:22:21;;;;;;;33.35;19.23;;;51.20;2227.20;;;;;;4976179;28;20030;-88
2021/01/29 03:24:54;;;;;;;37.75;20.77;;;26.50;2201.60;;;;;;4974683;28;20089;-87
2021/01/29 03:27:22;;;;;;;;;;;26.50;2201.60;;;;;;4975888;28;20027;-86
2021/01/29 03:32:56;;;;;;;38.25;21.27;;;51.20;2227.20;;;;;;4976297;28;20030;-87
2021/01/29 03:42:42;;;;;;;50.72;27.42;;;51.20;2227.20;;;;;;5022695;23;20054;-88
2021/01/29 03:52:31;;;;;;;44.22;24.25;;;51.20;2227.20;;;;;;4998396;28;20037;-89
2021/01/29 03:55:37;;;;;;;38.78;23.48;;;51.30;2227.20;;;;;;4997805;28;20462;-88
2021/01/29 03:58:46;;;;;;;55.03;29.80;;;51.30;2227.20;;;;;;4983821;28;20018;-89
2021/01/29 04:04:28;;;;;;;46.47;29.20;;;51.30;2227.20;;;;;;4998268;28;20121;-88
2021/01/29 04:10:19;;;;;;;37.80;23.52;;;51.40;2227.20;;;;;;4998509;28;20366;-88
2021/01/29 04:12:56;;;;;;;38.42;22.33;;;51.40;2227.20;;;;;;4980466;28;20022;-89
2021/01/29 04:15:50;;;;;;;37.40;22.35;;;51.50;2227.20;;;;;;4980778;28;20530;-89
2021/01/29 04:18:31;;;;;;;40.33;24.95;;;51.60;2227.20;;;;;;4980778;28;20022;-88
2021/01/29 04:21:17;;;;;;;47.60;28.55;;;51.60;2227.20;;;;;;4980475;28;20019;-89
2021/01/29 04:23:59;;;;;;;54.55;35.55;;;51.70;2227.20;;;;;;4980859;28;20391;-88
2021/01/29 04:26:30;;;;;;;54.95;32.22;;;51.70;2227.20;;;;;;4980581;28;20085;-88
2021/01/29 04:29:01;;;;;;;56.10;34.47;;;51.60;2227.20;;;;;;4998166;28;20015;-88
2021/01/29 04:31:30;;;;;;;53.00;34.08;;;51.70;2227.20;;;;;;4998044;28;20018;-88
2021/01/29 04:34:25;;;;;;;48.85;28.15;;;51.70;2227.20;;;;;;4997895;28;20037;-88
2021/01/29 04:36:55;;;;;;;43.72;26.08;;;51.70;2227.20;;;;;;4977975;28;20089;-89
2021/01/29 04:39:30;;;;;;;49.88;28.38;;;51.70;2227.20;;;;;;4980945;28;20419;-89
2021/01/29 04:42:29;;;;;;;47.90;28.48;;;51.70;2227.20;;;;;;4997496;28;20382;-89
2021/01/29 04:45:20;;;;;;;50.67;27.40;;;51.70;2227.20;;;;;;4980378;28;20370;-90
2021/01/29 04:47:53;;;;;;;45.67;28.33;;;51.70;2227.20;;;;;;4980315;28;20099;-89
2021/01/29 04:50:28;;;;;;;36.20;21.90;;;51.80;2227.20;;;;;;4979410;28;20031;-89
2021/01/29 04:53:19;;;;;;;33.08;19.58;;;51.80;2227.20;;;;;;4980272;28;20022;-88
2021/01/29 04:55:46;;;;;;;36.92;22.73;;;51.80;2227.20;;;;;;4997143;28;20026;-90
2021/01/29 04:58:20;;;;;;;38.50;24.33;;;51.80;2227.20;;;;;;4979894;28;20014;-87
2021/01/29 05:01:23;;;;;;;36.30;21.73;;;51.80;2227.20;;;;;;4979770;28;20030;-88
2021/01/29 05:04:27;;;;;;;40.97;25.23;;;51.80;2227.20;;;;;;4970063;28;20113;-90
2021/01/29 05:07:06;;;;;;;41.10;25.45;;;51.80;2227.20;;;;;;4980615;28;20026;-90
2021/01/29 05:10:09;;;;;;;58.50;34.10;;;51.80;2227.20;;;;;;4979802;28;20027;-87
2021/01/29 05:13:12;;;;;;;46.78;30.35;;;51.80;2227.20;;;;;;4980862;28;20018;-88
2021/01/29 05:16:05;;;;;;;43.83;25.90;;;51.80;2227.20;;;;;;4997274;28;20031;-88
2021/01/29 05:18:50;;;;;;;49.15;29.33;;;51.80;2227.20;;;;;;4997071;28;20019;-88
2021/01/29 05:21:31;;;;;;;65.13;40.03;;;51.80;2227.20;;;;;;4979637;28;20015;-88
2021/01/29 05:23:57;;;;;;;96.10;52.78;;;51.80;2227.20;;;;;;4979371;28;20022;-91
2021/01/29 05:27:00;;;;;;;92.85;52.50;;;51.80;2227.20;;;;;;4979440;28;20011;-87
2021/01/29 05:36:09;;;;;;;34.53;21.85;;;51.70;2227.20;;;;;;4996713;28;20374;-86
2021/01/29 05:38:44;;;;;;;26.05;17.15;;;51.70;2227.20;;;;;;4995791;28;20026;-87
2021/01/29 05:41:13;;;;;;;21.55;15.68;;;51.70;2227.20;;;;;;4975766;28;20058;-88
2021/01/29 05:44:14;;;;;;;27.38;16.92;;;51.70;2227.20;;;;;;4975695;28;20067;-89
2021/01/29 05:47:09;;;;;;;26.02;16.10;;;51.70;2227.20;;;;;;4976785;28;20025;-88
2021/01/29 05:49:47;;;;;;;32.28;18.95;;;51.80;2227.20;;;;;;4976094;28;20022;-89
2021/01/29 05:52:40;;;;;;;28.60;18.65;;;51.80;2227.20;;;;;;4976102;28;20025;-89
2021/01/29 05:55:12;;;;;;;25.58;17.95;;;51.80;2227.20;;;;;;4975762;28;20371;-88
2021/01/29 05:58:27;;;;;;;29.95;20.17;;;51.80;2227.20;;;;;;4975469;28;20487;-89
2021/01/29 06:01:18;;;;;;;43.60;24.65;;;51.80;2227.20;;;;;;4975606;28;20062;-89
2021/01/29 06:04:01;;;;;;;65.95;42.30;;;51.90;2227.20;;;;;;4975345;28;20113;-89
2021/01/29 06:07:28;;;;;;;84.00;53.67;;;51.90;2227.20;;;;;;4975544;28;20085;-87
2021/01/29 06:10:36;;;;;;;465.33;265.75;;;51.80;2227.20;;;;;;4882896;29;20028;-89
2021/01/29 06:13:11;;;;;;;550.92;330.40;;;51.80;2227.20;;;;;;4897096;29;20020;-87
2021/01/29 06:16:05;;;;;;;450.00;241.55;;;51.90;2227.20;;;;;;4954535;29;20028;-88
2021/01/29 06:18:46;;;;;;;495.65;291.42;;;51.90;2227.20;;;;;;4955225;29;20031;-87
2021/01/29 06:21:33;;;;;;;253.10;150.48;;;51.90;2227.20;;;;;;4956526;29;20023;-89
2021/01/29 06:24:21;;;;;;;133.25;84.35;;;52.00;2227.20;;;;;;4956338;29;20023;-88
2021/01/29 06:27:21;;;;;;;90.63;56.25;;;52.00;2227.20;;;;;;4956040;29;20027;-89
2021/01/29 06:30:17;;;;;;;73.15;46.72;;;52.10;2227.20;;;;;;4955990;29;20024;-89
2021/01/29 06:32:58;;;;;;;90.00;53.60;;;52.10;2227.20;;;;;;4914407;29;20479;-88
2021/01/29 06:35:48;;;;;;;101.75;61.53;;;52.10;2227.20;;;;;;4955730;29;20026;-89
2021/01/29 06:38:17;;;;;;;114.38;76.43;;;52.10;2227.20;;;;;;4955928;29;20035;-90
2021/01/29 06:40:54;;;;;;;145.70;107.07;;;52.00;2227.20;;;;;;4955366;29;20498;-88
2021/01/29 06:43:28;;;;;;;76.93;55.58;;;52.10;2227.20;;;;;;4942793;28;20517;-89
2021/01/29 06:46:09;;;;;;;64.57;42.63;;;52.10;2227.20;;;;;;4956139;29;20478;-87
2021/01/29 06:49:05;;;;;;;98.57;57.50;;;52.10;2227.20;;;;;;4954106;29;20070;-88
2021/01/29 06:52:05;;;;;;;120.88;71.70;;;76.80;2227.20;;;;;;4955276;29;20057;-89
2021/01/29 06:54:51;;;;;;;143.07;78.55;;;76.90;2227.20;;;;;;4955660;29;20019;-88
2021/01/29 06:57:42;;;;;;;159.00;78.22;;;76.90;2227.20;;;;;;4955731;29;20031;-88
2021/01/29 07:00:46;;;;;;;165.65;84.07;;;76.90;2227.20;;;;;;4942319;29;20035;-88
2021/01/29 07:03:23;;;;;;;181.50;90.28;;;76.90;2227.20;;;;;;4956286;29;20023;-88
2021/01/29 07:06:07;;;;;;;267.83;133.80;;;76.90;2227.20;;;;;;4955763;29;20081;-89
2021/01/29 07:09:02;;;;;;;345.08;169.70;;;77.00;2227.20;;;;;;4956472;28;20146;-89
2021/01/29 07:11:36;;;;;;;322.95;152.23;;;77.00;2227.20;;;;;;4955570;28;20039;-87
2021/01/29 07:14:20;;;;;;;215.50;110.97;;;77.00;2227.20;;;;;;4950614;29;20028;-88
2021/01/29 07:17:03;;;;;;;172.63;103.13;;;77.10;2227.20;;;;;;4936391;29;20030;-87
2021/01/29 07:19:37;;;;;;;;;;;77.10;2227.20;;;;;;4936056;29;20088;-88
2021/01/29 07:22:18;;;;;;;154.75;95.65;;;77.10;2227.20;;;;;;4936418;29;20330;-88
2021/01/29 07:25:06;;;;;;;143.57;88.05;;;77.10;2227.20;;;;;;4936405;29;20115;-88
2021/01/29 07:28:00;;;;;;;145.00;87.25;;;77.10;2227.20;;;;;;4936392;29;20032;-88
2021/01/29 07:31:00;;;;;;;138.23;88.00;;;77.10;2227.20;;;;;;4937455;29;20028;-88
2021/01/29 07:33:44;;;;;;;159.60;98.93;;;77.10;2227.20;;;;;;4936834;29;20047;-88
2021/01/29 07:36:25;;;;;;;140.65;90.70;;;77.20;2227.20;;;;;;4936129;29;20023;-89
2021/01/29 07:39:09;;;;;;;123.10;82.45;;;77.20;2227.20;;;;;;4936371;29;20171;-88
2021/01/29 07:41:34;;;;;;;126.88;78.40;;;77.20;2227.20;;;;;;4948744;28;20050;-88
2021/01/29 07:44:09;;;;;;;100.03;65.47;;;77.20;2227.20;;;;;;4956192;29;20023;-88
2021/01/29 07:46:44;;;;;;;125.95;73.30;;;77.20;2227.20;;;;;;4955129;29;20074;-87
2021/01/29 07:49:35;;;;;;;120.72;77.00;;;77.30;2227.20;;;;;;4954999;29;20051;-87
2021/01/29 07:52:12;;;;;;;108.88;76.20;;;77.30;2227.20;;;;;;4956014;29;20023;-88
2021/01/29 07:55:01;;;;;;;121.53;78.43;;;77.40;2227.20;;;;;;4955978;29;20082;-89
2021/01/29 07:57:46;;;;;;;109.88;72.85;;;77.50;2227.20;;;;;;4955179;29;20136;-89
2021/01/29 08:00:53;;;;;;;118.75;81.30;;;77.40;2227.20;;;;;;4956045;29;20043;-89
2021/01/29 08:03:56;;;;;;;140.18;85.95;;;77.50;2227.20;;;;;;4935214;29;20173;-88
2021/01/29 08:06:31;;;;;;;159.13;94.25;;;77.50;2227.20;;;;;;4955083;29;20055;-88
2021/01/29 08:09:10;;;;;;;144.38;88.78;;;77.40;2227.20;;;;;;4955201;29;20467;-88
2021/01/29 08:11:40;;;;;;;160.90;98.15;;;77.50;2227.20;;;;;;4956192;28;20049;-90
2021/01/29 08:14:18;;;;;;;159.85;105.18;;;77.50;2227.20;;;;;;4955001;29;20023;-88
2021/01/29 08:17:06;;;;;;;205.00;135.55;;;77.50;2227.20;;;;;;4955243;29;20082;-90
2021/01/29 08:20:08;;;;;;;174.15;115.25;;;77.40;2227.20;;;;;;4955365;29;20031;-89
2021/01/29 08:23:03;;;;;;;142.02;94.72;;;77.50;2227.20;;;;;;4954918;29;20054;-87
2021/01/29 08:25:47;;;;;;;126.88;88.25;;;77.60;2227.20;;;;;;4958230;29;20023;-88
2021/01/29 08:28:34;;;;;;;139.32;92.57;;;77.50;2227.20;;;;;;4958287;29;20034;-91
2021/01/29 08:31:34;;;;;;;135.30;92.53;;;77.50;2227.20;;;;;;4958077;29;20090;-89
2021/01/29 08:34:56;;;;;;;135.90;96.05;;;77.70;2227.20;;;;;;4958365;29;20023;-88
2021/01/29 08:37:29;;;;;;;129.20;87.15;;;77.70;2227.20;;;;;;4958587;29;20122;-89
2021/01/29 08:40:28;;;;;;;127.15;82.90;;;102.40;2227.20;;;;;;4959159;28;20086;-89
2021/01/29 08:43:21;;;;;;;130.25;84.32;;;102.50;2227.20;;;;;;4958431;29;20464;-88
2021/01/29 08:46:08;;;;;;;129.05;80.82;;;102.50;2227.20;;;;;;4958141;29;20491;-89
2021/01/29 08:49:01;;;;;;;110.20;78.57;;;102.60;2227.20;;;;;;4958375;29;20031;-89
2021/01/29 08:51:30;;;;;;;96.57;73.55;;;102.70;2227.20;;;;;;4958348;29;20030;-89
2021/01/29 08:54:17;;;;;;;117.50;77.97;;;102.60;2227.20;;;;;;4957730;29;20071;-89
2021/01/29 08:57:10;;;;;;;80.18;55.72;;;102.70;2227.20;;;;;;4957809;29;20031;-89
2021/01/29 08:59:39;;;;;;;126.07;78.57;;;102.70;2227.20;;;;;;4957721;29;20024;-89
2021/01/29 09:02:36;;;;;;;112.55;76.22;;;102.90;2227.20;;;;;;4958550;29;20056;-89
2021/01/29 09:05:12;;;;;;;107.70;74.95;;;102.90;2227.20;;;;;;4957962;29;20114;-88
2021/01/29 09:07:39;;;;;;;89.00;61.55;;;103.00;2227.20;;;;;;4957424;29;20034;-89
2021/01/29 09:10:20;;;;;;;93.38;65.47;;;102.60;2227.20;;;;;;4958442;29;20071;-89
2021/01/29 09:12:55;;;;;;;107.63;74.43;;;103.00;2227.20;;;;;;4957586;29;20539;-88
2021/01/29 09:15:51;;;;;;;120.63;80.43;;;103.10;2227.20;;;;;;4960927;28;20082;-90
2021/01/29 09:18:31;;;;;;;106.57;73.38;;;103.10;2227.20;;;;;;4978043;28;20027;-88
2021/01/29 09:21:36;;;;;;;128.02;82.07;;;103.20;2227.20;;;;;;4975647;28;20019;-86
2021/01/29 09:24:11;;;;;;;137.23;82.45;;;103.20;2227.20;;;;;;4942641;28;20037;-89
2021/01/29 09:26:49;;;;;;;122.25;74.68;;;128.00;2252.80;;;;;;4976809;28;20576;-89
2021/01/29 09:29:37;;;;;;;106.78;73.72;;;128.00;2252.80;;;;;;4976125;28;20026;-88
2021/01/29 09:32:09;;;;;;;121.40;84.22;;;128.10;2252.80;;;;;;4976518;28;20023;-88
2021/01/29 09:34:43;;;;;;;108.63;75.07;;;128.10;2252.80;;;;;;4976611;28;20530;-88
2021/01/29 09:37:18;;;;;;;96.82;62.95;;;128.20;2252.80;;;;;;4975413;28;20025;-92
2021/01/29 09:39:52;;;;;;;83.65;53.15;;;128.30;2252.80;;;;;;4976758;28;20451;-90
2021/01/29 09:42:50;;;;;;;79.18;53.10;;;128.30;2252.80;;;;;;4976822;28;20097;-90
2021/01/29 09:45:24;;;;;;;73.95;49.15;;;128.40;2252.80;;;;;;4960146;28;20034;-89
2021/01/29 09:47:58;;;;;;;81.82;52.17;;;128.40;2252.80;;;;;;4975806;28;20034;-88
2021/01/29 09:50:26;;;;;;;48.17;35.80;;;128.40;2252.80;;;;;;4975973;28;20034;-89
2021/01/29 09:53:05;;;;;;;50.78;36.47;;;128.40;2252.80;;;;;;4976167;28;20110;-89
2021/01/29 09:55:48;;;;;;;75.25;52.80;;;128.60;2252.80;;;;;;4976121;28;20038;-89
2021/01/29 09:58:59;;;;;;;58.83;42.45;;;128.70;2252.80;;;;;;4976296;28;20046;-89
2021/01/29 10:01:34;;;;;;;61.60;45.55;;;128.80;2252.80;;;;;;4975763;28;20488;-90
2021/01/29 10:04:11;;;;;;;46.53;32.30;;;128.70;2252.80;;;;;;4976098;28;20031;-87
2021/01/29 10:06:50;;;;;;;44.20;33.53;;;128.70;2252.80;;;;;;4975575;28;20029;-86
2021/01/29 10:09:24;;;;;;;44.15;30.58;;;128.80;2252.80;;;;;;4975415;28;20033;-87
2021/01/29 10:12:24;;;;;;;52.63;36.38;;;128.90;2252.80;;;;;;4975664;28;20022;-87
2021/01/29 10:15:00;;;;;;;52.05;35.05;;;153.70;2252.80;;;;;;4958592;28;20038;-87
2021/01/29 10:17:33;;;;;;;35.30;26.30;;;153.70;2252.80;;;;;;4975715;28;20022;-88
2021/01/29 10:20:04;;;;;;;40.80;30.38;;;153.70;2252.80;;;;;;4976000;28;20026;-87
2021/01/29 10:22:42;;;;;;;39.95;29.48;;;153.90;2252.80;;;;;;4975644;28;20034;-86
2021/01/29 10:25:26;;;;;;;44.95;34.00;;;154.00;2252.80;;;;;;4975102;28;20019;-85
2021/01/29 10:27:58;;;;;;;70.70;46.20;;;154.00;2252.80;;;;;;4974875;28;20030;-86
2021/01/29 10:30:46;;;;;;;58.13;40.35;;;154.00;2252.80;;;;;;4975100;28;20023;-86
2021/01/29 10:33:20;;;;;;;70.28;46.97;;;154.00;2252.80;;;;;;4974633;28;20027;-86
2021/01/29 10:36:05;;;;;;;47.22;33.08;;;154.10;2252.80;;;;;;4974856;28;20139;-85
2021/01/29 10:38:52;;;;;;;46.83;33.40;;;154.20;2252.80;;;;;;4975274;28;20356;-85
2021/01/29 10:41:53;;;;;;;35.45;26.58;;;154.40;2252.80;;;;;;4974617;28;20395;-86
2021/01/29 10:44:28;;;;;;;28.95;19.13;;;154.40;2252.80;;;;;;4974485;28;20077;-85
2021/01/29 10:47:12;;;;;;;35.47;26.00;;;179.40;2227.20;;;;;;4973772;28;20031;-84
2021/01/29 10:50:05;;;;;;;59.38;39.15;;;179.50;2201.60;;;;;;4976243;28;20105;-84
2021/01/29 10:52:39;;;;;;;50.45;34.00;;;179.50;2201.60;;;;;;4961934;28;20050;-82
2021/01/29 10:55:23;;;;;;;36.35;25.58;;;179.50;2176.00;;;;;;4974267;28;20033;-84
2021/01/29 10:58:24;;;;;;;59.55;37.65;;;179.70;2176.00;;;;;;4975735;28;20018;-87
2021/01/29 11:00:59;;;;;;;43.72;28.67;;;179.80;2150.40;;;;;;4975627;28;20031;-85
2021/01/29 11:04:04;;;;;;;46.55;28.67;;;179.80;2150.40;;;;;;4973875;28;20093;-85
2021/01/29 11:06:41;;;;;;;51.65;30.05;;;179.90;2124.80;;;;;;4975230;28;20474;-80
2021/01/29 11:09:16;;;;;;;40.58;26.67;;;180.00;2176.00;;;;;;4974904;28;20489;-79
2021/01/29 11:11:50;;;;;;;40.30;27.63;;;180.10;2150.40;;;;;;4974447;28;20355;-78
2021/01/29 11:14:33;;;;;;;29.00;20.25;;;204.90;2124.80;;;;;;4974024;28;20029;-80
2021/01/29 11:17:07;;;;;;;23.70;18.00;;;205.00;2048.00;;;;;;4974580;28;20118;-80
2021/01/29 11:19:42;;;;;;;30.95;21.92;;;205.00;2073.60;;;;;;4975117;28;20049;-81
2021/01/29 11:22:37;;;;;;;34.10;23.17;;;205.10;2099.20;;;;;;4974356;28;20019;-79
2021/01/29 11:25:09;;;;;;;44.53;28.70;;;205.20;2022.40;;;;;;4973664;28;20026;-76
2021/01/29 11:28:07;;;;;;;40.53;26.80;;;205.20;2073.60;;;;;;4974655;28;20033;-78
2021/01/29 11:30:45;;;;;;;32.33;21.35;;;205.50;2048.00;;;;;;4974584;28;20449;-80
2021/01/29 11:33:11;;;;;;;44.13;29.98;;;205.60;2048.00;;;;;;4974971;28;20081;-82
2021/01/29 11:35:50;;;;;;;28.05;18.40;;;205.60;2022.40;;;;;;4973330;28;20019;-77
2021/01/29 11:38:34;;;;;;;27.40;19.35;;;205.70;2022.40;;;;;;4973431;28;20041;-77
2021/01/29 11:41:24;;;;;;;30.73;23.50;;;230.40;1971.20;;;;;;4973097;28;20046;-79
2021/01/29 11:44:19;;;;;;;20.00;15.30;;;230.50;1971.20;;;;;;4973877;28;20378;-78
2021/01/29 11:47:00;;;;;;;24.75;17.83;;;230.90;1945.60;;;;;;4973415;28;20379;-79
2021/01/29 11:49:46;;;;;;;23.67;17.02;;;231.20;1894.40;;;;;;4973683;28;20027;-81
2021/01/29 11:52:35;;;;;;;36.13;24.40;;;256.20;1894.40;;;;;;4974977;28;20070;-84
2021/01/29 11:55:24;;;;;;;26.98;22.70;;;256.60;1843.20;;;;;;4974825;28;20061;-80
2021/01/29 11:58:13;;;;;;;24.90;18.73;;;256.80;1817.60;;;;;;4972925;28;20019;-81
2021/01/29 12:00:48;;;;;;;22.52;18.13;;;256.80;1817.60;;;;;;4977252;28;20027;-82
2021/01/29 12:03:56;;;;;;;28.83;20.73;;;256.80;1817.60;;;;;;4978427;28;20014;-84
2021/01/29 12:06:42;;;;;;;35.25;25.67;;;256.80;1792.00;;;;;;4963409;28;20467;-83
2021/01/29 12:09:22;;;;;;;31.63;22.45;;;281.90;1817.60;;;;;;4978414;28;20027;-83
2021/01/29 12:12:05;;;;;;;30.95;21.83;;;281.80;1817.60;;;;;;4977161;28;20109;-80
2021/01/29 12:14:48;;;;;;;29.02;21.92;;;281.70;1843.20;;;;;;4976792;28;20054;-82
2021/01/29 12:17:18;;;;;;;35.40;29.00;;;281.60;1843.20;;;;;;4972961;28;20042;-81
2021/01/29 12:19:45;;;;;;;30.63;22.13;;;256.90;1843.20;;;;;;4956527;29;20073;-80
2021/01/29 12:22:26;;;;;;;30.23;21.10;;;256.80;1843.20;;;;;;4957025;29;20518;-78
2021/01/29 12:25:33;;;;;;;28.58;20.73;;;256.50;1868.80;;;;;;4957493;29;20019;-85
2021/01/29 12:28:06;;;;;;;29.77;20.38;;;256.40;1868.80;;;;;;4973553;28;20030;-82
2021/01/29 12:30:41;;;;;;;33.85;24.02;;;256.30;1894.40;;;;;;4958139;29;20066;-81
2021/01/29 12:33:18;;;;;;;34.53;25.40;;;256.50;1894.40;;;;;;4957207;29;20157;-81
2021/01/29 12:35:58;;;;;;;31.92;22.50;;;256.50;1894.40;;;;;;4958681;28;20024;-79
2021/01/29 12:38:27;;;;;;;34.47;23.55;;;256.60;1868.80;;;;;;4958366;28;20031;-79
2021/01/29 12:41:04;;;;;;;49.38;33.80;;;256.90;1868.80;;;;;;4972634;28;20058;-80
2021/01/29 12:43:54;;;;;;;33.28;24.30;;;281.80;1868.80;;;;;;4973169;28;20042;-81
2021/01/29 12:46:32;;;;;;;27.30;19.73;;;282.00;1868.80;;;;;;4956526;29;20473;-81
2021/01/29 12:49:25;;;;;;;29.45;23.08;;;282.30;1817.60;;;;;;4956250;29;20094;-81
2021/01/29 12:52:00;;;;;;;19.70;14.05;;;282.50;1766.40;;;;;;4957148;29;20055;-81
2021/01/29 12:54:52;;;;;;;29.67;18.23;;;307.20;1792.00;;;;;;4957551;28;20082;-80
2021/01/29 12:57:21;;;;;;;23.33;14.73;;;307.40;1792.00;;;;;;4956929;29;20418;-79
2021/01/29 12:59:54;;;;;;;24.77;18.33;;;307.30;1817.60;;;;;;4972881;28;20371;-78
2021/01/29 13:02:42;;;;;;;26.35;19.98;;;307.40;1817.60;;;;;;4956514;29;20023;-78
2021/01/29 13:05:11;;;;;;;29.52;19.73;;;307.50;1817.60;;;;;;4973329;28;20411;-78
2021/01/29 13:08:07;;;;;;;29.55;22.30;;;307.50;1843.20;;;;;;4957275;29;20110;-77
2021/01/29 13:10:41;;;;;;;32.38;23.38;;;307.40;1817.60;;;;;;4929103;28;20039;-79
2021/01/29 13:13:19;;;;;;;21.60;17.25;;;307.30;1843.20;;;;;;4955984;28;20051;-77
2021/01/29 13:16:21;;;;;;;23.90;17.55;;;282.50;1792.00;;;;;;4975251;28;20022;-77
2021/01/29 13:19:02;;;;;;;23.88;17.27;;;282.40;1817.60;;;;;;4944629;28;20104;-77
2021/01/29 13:21:39;;;;;;;30.33;22.05;;;282.30;1894.40;;;;;;4975256;28;20367;-77
2021/01/29 13:24:25;;;;;;;30.60;21.13;;;282.30;1920.00;;;;;;4975871;28;20019;-80
2021/01/29 13:26:51;;;;;;;20.75;14.15;;;282.10;1843.20;;;;;;4976575;28;20474;-81
2021/01/29 13:29:23;;;;;;;45.20;28.90;;;282.10;1868.80;;;;;;4976590;28;20023;-81
2021/01/29 13:31:50;;;;;;;38.15;30.02;;;282.00;1843.20;;;;;;4975208;28;20451;-79
2021/01/29 13:34:19;;;;;;;74.88;50.25;;;282.00;1868.80;;;;;;4976003;28;20058;-81
2021/01/29 13:37:06;;;;;;;60.88;45.38;;;281.90;1894.40;;;;;;4975072;28;20474;-79
2021/01/29 13:39:38;;;;;;;39.10;29.40;;;281.80;1894.40;;;;;;4975562;28;20113;-79
2021/01/29 13:42:27;;;;;;;41.97;32.10;;;281.80;1868.80;;;;;;4992841;28;20053;-81
2021/01/29 13:45:24;;;;;;;101.47;65.45;;;281.90;1894.40;;;;;;4996252;28;20090;-77
2021/01/29 13:48:01;;;;;;;91.22;57.85;;;281.90;1945.60;;;;;;4996290;28;20026;-77
2021/01/29 13:50:53;;;;;;;90.00;59.63;;;281.90;1920.00;;;;;;4977783;28;20172;-78
2021/01/29 13:53:27;;;;;;;157.13;95.60;;;281.90;1894.40;;;;;;4984005;28;20069;-79
2021/01/29 13:56:04;;;;;;;118.38;65.00;;;281.90;1894.40;;;;;;4995857;28;20061;-79
2021/01/29 13:58:36;;;;;;;94.10;55.17;;;281.90;1868.80;;;;;;4995139;28;20033;-80
2021/01/29 14:01:15;;;;;;;59.58;36.80;;;282.00;1843.20;;;;;;4978212;28;20026;-79
2021/01/29 14:03:53;;;;;;;92.65;58.20;;;282.00;1817.60;;;;;;4977555;28;20414;-79
2021/01/29 14:06:19;;;;;;;72.28;46.15;;;282.10;1817.60;;;;;;4995829;28;20054;-78
2021/01/29 14:08:47;;;;;;;126.65;75.38;;;282.00;1817.60;;;;;;4977899;28;20030;-80
2021/01/29 14:11:50;;;;;;;94.72;63.05;;;282.10;1868.80;;;;;;4977639;28;20026;-80
2021/01/29 14:14:28;;;;;;;;;;;282.10;1894.40;;;;;;4996052;28;20025;-78
2021/01/29 14:17:03;;;;;;;56.97;38.92;;;282.00;1920.00;;;;;;4977662;28;19948;-79
2021/01/29 14:20:07;;;;;;;70.72;51.50;;;281.80;1894.40;;;;;;4994990;28;20439;-78
2021/01/29 14:22:50;;;;;;;;;;;281.70;1894.40;;;;;;4977999;28;20040;-78